sensor_id;sensor_type;location;lat;lon;timestamp;P1;durP1;ratioP1;P2;durP2;ratioP2
80293;SDS011;69594;43.516;1.498;2024-02-28T00:02:10;8.73;;;2.33;;
80293;SDS011;69594;43.516;1.498;2024-02-28T00:04:36;7.82;;;2.13;;
80293;SDS011;69594;43.516;1.498;2024-02-28T00:07:05;4.95;;;2.58;;
80293;SDS011;69594;43.516;1.498;2024-02-28T00:09:30;7.63;;;2.10;;
80293;SDS011;69594;43.516;1.498;2024-02-28T00:11:56;10.93;;;2.72;;
80293;SDS011;69594;43.516;1.498;2024-02-28T00:14:22;6.10;;;1.97;;
80293;SDS011;69594;43.516;1.498;2024-02-28T00:16:47;7.28;;;2.70;;
80293;SDS011;69594;43.516;1.498;2024-02-28T00:19:13;7.80;;;2.08;;
80293;SDS011;69594;43.516;1.498;2024-02-28T00:21:39;3.97;;;2.10;;
80293;SDS011;69594;43.516;1.498;2024-02-28T00:24:08;10.53;;;2.73;;
80293;SDS011;69594;43.516;1.498;2024-02-28T00:26:35;7.85;;;2.10;;
80293;SDS011;69594;43.516;1.498;2024-02-28T00:29:01;6.13;;;2.38;;
80293;SDS011;69594;43.516;1.498;2024-02-28T00:31:26;8.93;;;2.17;;
80293;SDS011;69594;43.516;1.498;2024-02-28T00:33:52;7.07;;;2.13;;
80293;SDS011;69594;43.516;1.498;2024-02-28T00:36:18;12.15;;;2.20;;
80293;SDS011;69594;43.516;1.498;2024-02-28T00:38:44;7.97;;;2.55;;
80293;SDS011;69594;43.516;1.498;2024-02-28T00:41:09;8.40;;;2.88;;
80293;SDS011;69594;43.516;1.498;2024-02-28T00:43:35;7.37;;;2.20;;
80293;SDS011;69594;43.516;1.498;2024-02-28T00:46:01;5.70;;;2.08;;
80293;SDS011;69594;43.516;1.498;2024-02-28T00:48:27;7.37;;;2.27;;
80293;SDS011;69594;43.516;1.498;2024-02-28T00:50:53;6.82;;;2.17;;
80293;SDS011;69594;43.516;1.498;2024-02-28T00:53:19;11.85;;;2.42;;
80293;SDS011;69594;43.516;1.498;2024-02-28T00:55:45;6.15;;;2.10;;
80293;SDS011;69594;43.516;1.498;2024-02-28T00:58:11;7.32;;;1.88;;
80293;SDS011;69594;43.516;1.498;2024-02-28T01:00:37;6.40;;;1.70;;
80293;SDS011;69594;43.516;1.498;2024-02-28T01:03:02;6.13;;;2.42;;
80293;SDS011;69594;43.516;1.498;2024-02-28T01:05:29;7.38;;;1.80;;
80293;SDS011;69594;43.516;1.498;2024-02-28T01:07:55;5.75;;;1.73;;
80293;SDS011;69594;43.516;1.498;2024-02-28T01:10:21;8.45;;;2.15;;
80293;SDS011;69594;43.516;1.498;2024-02-28T01:12:47;8.68;;;2.13;;
80293;SDS011;69594;43.516;1.498;2024-02-28T01:15:13;6.00;;;2.07;;
80293;SDS011;69594;43.516;1.498;2024-02-28T01:17:39;4.43;;;1.83;;
80293;SDS011;69594;43.516;1.498;2024-02-28T01:20:05;7.87;;;2.00;;
80293;SDS011;69594;43.516;1.498;2024-02-28T01:22:33;6.82;;;2.10;;
80293;SDS011;69594;43.516;1.498;2024-02-28T01:24:59;7.03;;;2.20;;
80293;SDS011;69594;43.516;1.498;2024-02-28T01:27:24;8.27;;;2.28;;
80293;SDS011;69594;43.516;1.498;2024-02-28T01:29:50;5.80;;;1.80;;
80293;SDS011;69594;43.516;1.498;2024-02-28T01:32:17;9.32;;;2.28;;
80293;SDS011;69594;43.516;1.498;2024-02-28T01:34:43;5.50;;;1.70;;
80293;SDS011;69594;43.516;1.498;2024-02-28T01:37:08;4.20;;;1.52;;
80293;SDS011;69594;43.516;1.498;2024-02-28T01:39:34;10.17;;;2.20;;
80293;SDS011;69594;43.516;1.498;2024-02-28T01:42:00;4.47;;;1.80;;
80293;SDS011;69594;43.516;1.498;2024-02-28T01:44:25;8.53;;;1.93;;
80293;SDS011;69594;43.516;1.498;2024-02-28T01:46:51;7.90;;;1.98;;
80293;SDS011;69594;43.516;1.498;2024-02-28T01:49:19;4.80;;;1.60;;
80293;SDS011;69594;43.516;1.498;2024-02-28T01:51:45;11.63;;;2.28;;
80293;SDS011;69594;43.516;1.498;2024-02-28T01:54:12;3.78;;;2.00;;
80293;SDS011;69594;43.516;1.498;2024-02-28T01:56:39;7.67;;;2.00;;
80293;SDS011;69594;43.516;1.498;2024-02-28T01:59:05;7.93;;;2.00;;
80293;SDS011;69594;43.516;1.498;2024-02-28T02:01:32;10.20;;;1.92;;
80293;SDS011;69594;43.516;1.498;2024-02-28T02:03:58;5.63;;;1.30;;
80293;SDS011;69594;43.516;1.498;2024-02-28T02:06:24;5.70;;;1.85;;
80293;SDS011;69594;43.516;1.498;2024-02-28T02:08:50;7.68;;;1.70;;
80293;SDS011;69594;43.516;1.498;2024-02-28T02:11:16;6.20;;;1.67;;
80293;SDS011;69594;43.516;1.498;2024-02-28T02:13:52;7.57;;;1.90;;
80293;SDS011;69594;43.516;1.498;2024-02-28T02:16:18;8.10;;;1.55;;
80293;SDS011;69594;43.516;1.498;2024-02-28T02:18:46;6.50;;;2.10;;
80293;SDS011;69594;43.516;1.498;2024-02-28T02:21:13;5.60;;;1.50;;
80293;SDS011;69594;43.516;1.498;2024-02-28T02:23:42;5.82;;;1.52;;
80293;SDS011;69594;43.516;1.498;2024-02-28T02:26:08;7.23;;;1.87;;
80293;SDS011;69594;43.516;1.498;2024-02-28T02:28:34;5.50;;;1.50;;
80293;SDS011;69594;43.516;1.498;2024-02-28T02:31:00;7.03;;;2.03;;
80293;SDS011;69594;43.516;1.498;2024-02-28T02:33:25;7.28;;;1.92;;
80293;SDS011;69594;43.516;1.498;2024-02-28T02:35:52;8.85;;;1.70;;
80293;SDS011;69594;43.516;1.498;2024-02-28T02:38:18;8.93;;;2.00;;
80293;SDS011;69594;43.516;1.498;2024-02-28T02:40:48;7.15;;;1.60;;
80293;SDS011;69594;43.516;1.498;2024-02-28T02:43:16;7.47;;;1.55;;
80293;SDS011;69594;43.516;1.498;2024-02-28T02:45:42;6.25;;;1.85;;
80293;SDS011;69594;43.516;1.498;2024-02-28T02:48:09;4.20;;;1.53;;
80293;SDS011;69594;43.516;1.498;2024-02-28T02:50:35;6.35;;;1.50;;
80293;SDS011;69594;43.516;1.498;2024-02-28T02:53:01;6.95;;;2.75;;
80293;SDS011;69594;43.516;1.498;2024-02-28T02:55:27;4.05;;;1.58;;
80293;SDS011;69594;43.516;1.498;2024-02-28T02:57:53;4.17;;;1.57;;
80293;SDS011;69594;43.516;1.498;2024-02-28T03:00:20;4.43;;;1.35;;
80293;SDS011;69594;43.516;1.498;2024-02-28T03:02:46;8.10;;;1.45;;
80293;SDS011;69594;43.516;1.498;2024-02-28T03:05:12;3.30;;;1.52;;
80293;SDS011;69594;43.516;1.498;2024-02-28T03:07:37;6.40;;;1.60;;
80293;SDS011;69594;43.516;1.498;2024-02-28T03:10:03;3.60;;;1.40;;
80293;SDS011;69594;43.516;1.498;2024-02-28T03:12:29;5.47;;;1.42;;
80293;SDS011;69594;43.516;1.498;2024-02-28T03:14:55;10.20;;;2.53;;
80293;SDS011;69594;43.516;1.498;2024-02-28T03:17:21;5.63;;;1.50;;
80293;SDS011;69594;43.516;1.498;2024-02-28T03:19:46;4.57;;;1.60;;
80293;SDS011;69594;43.516;1.498;2024-02-28T03:22:12;8.53;;;1.60;;
80293;SDS011;69594;43.516;1.498;2024-02-28T03:24:38;4.93;;;1.42;;
80293;SDS011;69594;43.516;1.498;2024-02-28T03:27:03;3.93;;;1.40;;
80293;SDS011;69594;43.516;1.498;2024-02-28T03:29:29;6.57;;;1.73;;
80293;SDS011;69594;43.516;1.498;2024-02-28T03:31:56;8.80;;;1.27;;
80293;SDS011;69594;43.516;1.498;2024-02-28T03:34:23;4.07;;;1.10;;
80293;SDS011;69594;43.516;1.498;2024-02-28T03:36:49;4.32;;;1.52;;
80293;SDS011;69594;43.516;1.498;2024-02-28T03:39:15;6.30;;;1.75;;
80293;SDS011;69594;43.516;1.498;2024-02-28T03:41:41;4.23;;;1.40;;
80293;SDS011;69594;43.516;1.498;2024-02-28T03:44:07;7.50;;;1.40;;
80293;SDS011;69594;43.516;1.498;2024-02-28T03:46:33;6.00;;;1.70;;
80293;SDS011;69594;43.516;1.498;2024-02-28T03:48:59;6.73;;;1.80;;
80293;SDS011;69594;43.516;1.498;2024-02-28T03:51:24;6.05;;;1.38;;
80293;SDS011;69594;43.516;1.498;2024-02-28T03:53:50;7.57;;;1.50;;
80293;SDS011;69594;43.516;1.498;2024-02-28T03:56:22;11.40;;;1.73;;
80293;SDS011;69594;43.516;1.498;2024-02-28T03:58:52;4.20;;;1.40;;
80293;SDS011;69594;43.516;1.498;2024-02-28T04:01:18;6.23;;;1.83;;
80293;SDS011;69594;43.516;1.498;2024-02-28T04:03:44;5.72;;;1.40;;
80293;SDS011;69594;43.516;1.498;2024-02-28T04:06:10;4.38;;;1.35;;
80293;SDS011;69594;43.516;1.498;2024-02-28T04:08:36;7.20;;;2.10;;
80293;SDS011;69594;43.516;1.498;2024-02-28T04:11:02;9.23;;;2.00;;
80293;SDS011;69594;43.516;1.498;2024-02-28T04:13:28;4.55;;;1.50;;
80293;SDS011;69594;43.516;1.498;2024-02-28T04:15:53;4.82;;;1.40;;
80293;SDS011;69594;43.516;1.498;2024-02-28T04:18:19;6.47;;;1.35;;
80293;SDS011;69594;43.516;1.498;2024-02-28T04:20:45;6.83;;;1.43;;
80293;SDS011;69594;43.516;1.498;2024-02-28T04:23:10;4.60;;;1.58;;
80293;SDS011;69594;43.516;1.498;2024-02-28T04:25:36;5.73;;;1.47;;
80293;SDS011;69594;43.516;1.498;2024-02-28T04:28:05;4.60;;;1.60;;
80293;SDS011;69594;43.516;1.498;2024-02-28T04:30:30;5.37;;;1.70;;
80293;SDS011;69594;43.516;1.498;2024-02-28T04:32:56;6.13;;;1.50;;
80293;SDS011;69594;43.516;1.498;2024-02-28T04:35:22;6.43;;;1.20;;
80293;SDS011;69594;43.516;1.498;2024-02-28T04:37:47;6.97;;;1.23;;
80293;SDS011;69594;43.516;1.498;2024-02-28T04:40:13;5.00;;;1.80;;
80293;SDS011;69594;43.516;1.498;2024-02-28T04:42:40;7.60;;;1.30;;
80293;SDS011;69594;43.516;1.498;2024-02-28T04:45:08;5.68;;;1.30;;
80293;SDS011;69594;43.516;1.498;2024-02-28T04:47:34;7.57;;;1.40;;
80293;SDS011;69594;43.516;1.498;2024-02-28T04:50:01;8.07;;;1.43;;
80293;SDS011;69594;43.516;1.498;2024-02-28T04:52:29;5.78;;;1.40;;
80293;SDS011;69594;43.516;1.498;2024-02-28T04:54:55;6.22;;;1.38;;
80293;SDS011;69594;43.516;1.498;2024-02-28T04:57:21;3.55;;;1.48;;
80293;SDS011;69594;43.516;1.498;2024-02-28T04:59:47;4.53;;;1.20;;
80293;SDS011;69594;43.516;1.498;2024-02-28T05:02:12;5.23;;;1.10;;
80293;SDS011;69594;43.516;1.498;2024-02-28T05:04:38;4.63;;;1.50;;
80293;SDS011;69594;43.516;1.498;2024-02-28T05:07:04;8.47;;;1.30;;
80293;SDS011;69594;43.516;1.498;2024-02-28T05:09:32;5.22;;;1.50;;
80293;SDS011;69594;43.516;1.498;2024-02-28T05:11:57;3.60;;;1.30;;
80293;SDS011;69594;43.516;1.498;2024-02-28T05:14:24;6.72;;;1.38;;
80293;SDS011;69594;43.516;1.498;2024-02-28T05:16:49;4.70;;;1.58;;
80293;SDS011;69594;43.516;1.498;2024-02-28T05:19:15;7.43;;;1.77;;
80293;SDS011;69594;43.516;1.498;2024-02-28T05:21:44;6.22;;;1.35;;
80293;SDS011;69594;43.516;1.498;2024-02-28T05:24:10;10.05;;;1.48;;
80293;SDS011;69594;43.516;1.498;2024-02-28T05:26:36;6.80;;;1.40;;
80293;SDS011;69594;43.516;1.498;2024-02-28T05:29:03;6.47;;;1.83;;
80293;SDS011;69594;43.516;1.498;2024-02-28T05:31:29;4.97;;;1.60;;
80293;SDS011;69594;43.516;1.498;2024-02-28T05:33:57;7.43;;;1.45;;
80293;SDS011;69594;43.516;1.498;2024-02-28T05:36:24;5.43;;;1.60;;
80293;SDS011;69594;43.516;1.498;2024-02-28T05:38:51;3.42;;;1.50;;
80293;SDS011;69594;43.516;1.498;2024-02-28T05:41:18;8.98;;;1.85;;
80293;SDS011;69594;43.516;1.498;2024-02-28T05:43:44;4.28;;;1.70;;
80293;SDS011;69594;43.516;1.498;2024-02-28T05:46:11;7.18;;;1.30;;
80293;SDS011;69594;43.516;1.498;2024-02-28T05:48:37;6.20;;;1.17;;
80293;SDS011;69594;43.516;1.498;2024-02-28T05:51:02;5.07;;;2.42;;
80293;SDS011;69594;43.516;1.498;2024-02-28T05:53:29;5.93;;;1.55;;
80293;SDS011;69594;43.516;1.498;2024-02-28T05:56:04;7.25;;;1.80;;
80293;SDS011;69594;43.516;1.498;2024-02-28T05:58:37;5.23;;;1.50;;
80293;SDS011;69594;43.516;1.498;2024-02-28T06:01:03;4.88;;;1.70;;
80293;SDS011;69594;43.516;1.498;2024-02-28T06:03:29;4.10;;;1.50;;
80293;SDS011;69594;43.516;1.498;2024-02-28T06:05:54;6.40;;;1.95;;
80293;SDS011;69594;43.516;1.498;2024-02-28T06:08:22;5.33;;;1.63;;
80293;SDS011;69594;43.516;1.498;2024-02-28T06:10:48;5.07;;;1.65;;
80293;SDS011;69594;43.516;1.498;2024-02-28T06:13:14;6.53;;;1.60;;
80293;SDS011;69594;43.516;1.498;2024-02-28T06:15:39;4.40;;;1.33;;
80293;SDS011;69594;43.516;1.498;2024-02-28T06:18:05;7.77;;;1.80;;
80293;SDS011;69594;43.516;1.498;2024-02-28T06:20:31;6.80;;;1.95;;
80293;SDS011;69594;43.516;1.498;2024-02-28T06:22:57;7.15;;;1.33;;
80293;SDS011;69594;43.516;1.498;2024-02-28T06:25:23;6.45;;;1.45;;
80293;SDS011;69594;43.516;1.498;2024-02-28T06:27:49;5.45;;;1.58;;
80293;SDS011;69594;43.516;1.498;2024-02-28T06:30:15;7.07;;;1.70;;
80293;SDS011;69594;43.516;1.498;2024-02-28T06:32:42;6.38;;;1.33;;
80293;SDS011;69594;43.516;1.498;2024-02-28T06:35:08;5.25;;;1.40;;
80293;SDS011;69594;43.516;1.498;2024-02-28T06:37:34;5.53;;;1.58;;
80293;SDS011;69594;43.516;1.498;2024-02-28T06:40:00;6.70;;;1.67;;
80293;SDS011;69594;43.516;1.498;2024-02-28T06:42:26;6.20;;;1.65;;
80293;SDS011;69594;43.516;1.498;2024-02-28T06:44:51;6.85;;;1.83;;
80293;SDS011;69594;43.516;1.498;2024-02-28T06:47:17;5.10;;;1.60;;
80293;SDS011;69594;43.516;1.498;2024-02-28T06:49:45;4.47;;;1.75;;
80293;SDS011;69594;43.516;1.498;2024-02-28T06:52:11;4.17;;;1.40;;
80293;SDS011;69594;43.516;1.498;2024-02-28T06:54:37;7.97;;;2.60;;
80293;SDS011;69594;43.516;1.498;2024-02-28T06:57:03;8.73;;;1.67;;
80293;SDS011;69594;43.516;1.498;2024-02-28T06:59:29;8.33;;;1.77;;
80293;SDS011;69594;43.516;1.498;2024-02-28T07:01:54;15.43;;;2.25;;
80293;SDS011;69594;43.516;1.498;2024-02-28T07:04:20;8.50;;;1.60;;
80293;SDS011;69594;43.516;1.498;2024-02-28T07:06:46;4.60;;;1.90;;
80293;SDS011;69594;43.516;1.498;2024-02-28T07:09:11;6.37;;;1.53;;
80293;SDS011;69594;43.516;1.498;2024-02-28T07:11:37;5.20;;;1.40;;
80293;SDS011;69594;43.516;1.498;2024-02-28T07:14:04;5.27;;;1.70;;
80293;SDS011;69594;43.516;1.498;2024-02-28T07:16:30;5.55;;;1.60;;
80293;SDS011;69594;43.516;1.498;2024-02-28T07:18:59;3.00;;;1.20;;
80293;SDS011;69594;43.516;1.498;2024-02-28T07:21:28;5.70;;;1.30;;
80293;SDS011;69594;43.516;1.498;2024-02-28T07:23:55;5.57;;;1.48;;
80293;SDS011;69594;43.516;1.498;2024-02-28T07:26:21;4.93;;;1.27;;
80293;SDS011;69594;43.516;1.498;2024-02-28T07:28:47;4.60;;;1.27;;
80293;SDS011;69594;43.516;1.498;2024-02-28T07:31:23;2.83;;;1.30;;
80293;SDS011;69594;43.516;1.498;2024-02-28T07:33:49;4.53;;;1.30;;
80293;SDS011;69594;43.516;1.498;2024-02-28T07:36:15;6.85;;;1.67;;
80293;SDS011;69594;43.516;1.498;2024-02-28T07:38:43;5.67;;;1.73;;
80293;SDS011;69594;43.516;1.498;2024-02-28T07:41:09;5.93;;;1.45;;
80293;SDS011;69594;43.516;1.498;2024-02-28T07:43:35;4.68;;;1.52;;
80293;SDS011;69594;43.516;1.498;2024-02-28T07:46:07;7.32;;;1.80;;
80293;SDS011;69594;43.516;1.498;2024-02-28T07:48:33;6.28;;;1.73;;
80293;SDS011;69594;43.516;1.498;2024-02-28T07:50:59;7.03;;;1.40;;
80293;SDS011;69594;43.516;1.498;2024-02-28T07:53:26;8.95;;;2.58;;
80293;SDS011;69594;43.516;1.498;2024-02-28T07:55:52;6.20;;;1.80;;
80293;SDS011;69594;43.516;1.498;2024-02-28T07:58:17;9.27;;;2.50;;
80293;SDS011;69594;43.516;1.498;2024-02-28T08:00:43;5.45;;;1.85;;
80293;SDS011;69594;43.516;1.498;2024-02-28T08:03:09;3.78;;;1.30;;
80293;SDS011;69594;43.516;1.498;2024-02-28T08:05:35;9.10;;;2.25;;
80293;SDS011;69594;43.516;1.498;2024-02-28T08:08:07;3.58;;;1.40;;
80293;SDS011;69594;43.516;1.498;2024-02-28T08:10:33;5.38;;;1.60;;
80293;SDS011;69594;43.516;1.498;2024-02-28T08:13:03;6.88;;;1.92;;
80293;SDS011;69594;43.516;1.498;2024-02-28T08:15:30;4.03;;;1.13;;
80293;SDS011;69594;43.516;1.498;2024-02-28T08:17:56;9.30;;;1.73;;
80293;SDS011;69594;43.516;1.498;2024-02-28T08:20:22;4.72;;;1.83;;
80293;SDS011;69594;43.516;1.498;2024-02-28T08:22:47;6.63;;;1.60;;
80293;SDS011;69594;43.516;1.498;2024-02-28T08:25:13;6.20;;;1.83;;
80293;SDS011;69594;43.516;1.498;2024-02-28T08:27:39;4.28;;;1.20;;
80293;SDS011;69594;43.516;1.498;2024-02-28T08:30:05;3.80;;;1.50;;
80293;SDS011;69594;43.516;1.498;2024-02-28T08:32:32;7.18;;;1.48;;
80293;SDS011;69594;43.516;1.498;2024-02-28T08:34:58;3.63;;;1.10;;
80293;SDS011;69594;43.516;1.498;2024-02-28T08:37:24;8.85;;;1.70;;
80293;SDS011;69594;43.516;1.498;2024-02-28T08:39:51;5.28;;;1.55;;
80293;SDS011;69594;43.516;1.498;2024-02-28T08:42:17;6.40;;;1.50;;
80293;SDS011;69594;43.516;1.498;2024-02-28T08:44:42;5.93;;;2.03;;
80293;SDS011;69594;43.516;1.498;2024-02-28T08:47:08;7.97;;;1.45;;
80293;SDS011;69594;43.516;1.498;2024-02-28T08:49:38;4.35;;;1.17;;
80293;SDS011;69594;43.516;1.498;2024-02-28T08:52:04;7.05;;;1.40;;
80293;SDS011;69594;43.516;1.498;2024-02-28T08:54:30;4.13;;;1.30;;
80293;SDS011;69594;43.516;1.498;2024-02-28T08:56:56;7.30;;;1.35;;
80293;SDS011;69594;43.516;1.498;2024-02-28T08:59:21;6.60;;;1.80;;
80293;SDS011;69594;43.516;1.498;2024-02-28T09:01:48;5.13;;;1.50;;
80293;SDS011;69594;43.516;1.498;2024-02-28T09:04:14;6.38;;;1.52;;
80293;SDS011;69594;43.516;1.498;2024-02-28T09:06:40;7.03;;;1.50;;
80293;SDS011;69594;43.516;1.498;2024-02-28T09:09:06;5.80;;;1.40;;
80293;SDS011;69594;43.516;1.498;2024-02-28T09:11:32;4.85;;;1.10;;
80293;SDS011;69594;43.516;1.498;2024-02-28T09:13:57;4.07;;;1.17;;
80293;SDS011;69594;43.516;1.498;2024-02-28T09:16:24;6.65;;;1.40;;
80293;SDS011;69594;43.516;1.498;2024-02-28T09:18:49;4.53;;;1.60;;
80293;SDS011;69594;43.516;1.498;2024-02-28T09:21:15;5.53;;;2.00;;
80293;SDS011;69594;43.516;1.498;2024-02-28T09:23:41;5.88;;;1.67;;
80293;SDS011;69594;43.516;1.498;2024-02-28T09:26:06;6.23;;;1.60;;
80293;SDS011;69594;43.516;1.498;2024-02-28T09:28:32;7.57;;;2.53;;
80293;SDS011;69594;43.516;1.498;2024-02-28T09:30:58;5.68;;;1.50;;
80293;SDS011;69594;43.516;1.498;2024-02-28T09:33:24;11.37;;;1.67;;
80293;SDS011;69594;43.516;1.498;2024-02-28T09:35:50;4.53;;;1.65;;
80293;SDS011;69594;43.516;1.498;2024-02-28T09:38:15;5.63;;;1.50;;
80293;SDS011;69594;43.516;1.498;2024-02-28T09:40:41;11.68;;;1.63;;
80293;SDS011;69594;43.516;1.498;2024-02-28T09:43:15;3.33;;;1.40;;
80293;SDS011;69594;43.516;1.498;2024-02-28T09:45:56;7.25;;;1.45;;
80293;SDS011;69594;43.516;1.498;2024-02-28T09:48:26;5.75;;;1.20;;
80293;SDS011;69594;43.516;1.498;2024-02-28T09:51:02;4.60;;;1.40;;
80293;SDS011;69594;43.516;1.498;2024-02-28T09:53:28;4.20;;;1.33;;
80293;SDS011;69594;43.516;1.498;2024-02-28T09:55:54;7.87;;;1.70;;
80293;SDS011;69594;43.516;1.498;2024-02-28T09:58:19;5.93;;;1.42;;
80293;SDS011;69594;43.516;1.498;2024-02-28T10:00:48;4.57;;;1.50;;
80293;SDS011;69594;43.516;1.498;2024-02-28T10:03:17;4.28;;;1.80;;
80293;SDS011;69594;43.516;1.498;2024-02-28T10:05:46;2.38;;;1.10;;
80293;SDS011;69594;43.516;1.498;2024-02-28T10:08:12;12.82;;;1.98;;
80293;SDS011;69594;43.516;1.498;2024-02-28T10:10:48;3.30;;;1.55;;
80293;SDS011;69594;43.516;1.498;2024-02-28T10:13:17;6.07;;;1.97;;
80293;SDS011;69594;43.516;1.498;2024-02-28T10:15:43;6.78;;;1.58;;
80293;SDS011;69594;43.516;1.498;2024-02-28T10:18:10;6.43;;;1.58;;
80293;SDS011;69594;43.516;1.498;2024-02-28T10:20:36;7.88;;;1.45;;
80293;SDS011;69594;43.516;1.498;2024-02-28T10:23:08;4.57;;;1.20;;
80293;SDS011;69594;43.516;1.498;2024-02-28T10:28:10;3.75;;;1.70;;
80293;SDS011;69594;43.516;1.498;2024-02-28T10:30:43;8.15;;;2.30;;
80293;SDS011;69594;43.516;1.498;2024-02-28T10:33:18;6.43;;;1.90;;
80293;SDS011;69594;43.516;1.498;2024-02-28T10:35:43;6.80;;;1.70;;
80293;SDS011;69594;43.516;1.498;2024-02-28T10:38:13;9.13;;;1.65;;
80293;SDS011;69594;43.516;1.498;2024-02-28T10:40:42;6.68;;;1.92;;
80293;SDS011;69594;43.516;1.498;2024-02-28T10:43:08;6.13;;;1.20;;
80293;SDS011;69594;43.516;1.498;2024-02-28T10:45:38;4.68;;;1.50;;
80293;SDS011;69594;43.516;1.498;2024-02-28T10:48:04;4.03;;;1.20;;
80293;SDS011;69594;43.516;1.498;2024-02-28T10:50:30;3.80;;;1.52;;
80293;SDS011;69594;43.516;1.498;2024-02-28T10:52:58;4.70;;;1.10;;
80293;SDS011;69594;43.516;1.498;2024-02-28T10:55:25;5.20;;;1.48;;
80293;SDS011;69594;43.516;1.498;2024-02-28T10:58:06;2.25;;;1.20;;
80293;SDS011;69594;43.516;1.498;2024-02-28T11:00:32;6.55;;;1.73;;
80293;SDS011;69594;43.516;1.498;2024-02-28T11:02:59;5.50;;;1.10;;
80293;SDS011;69594;43.516;1.498;2024-02-28T11:06:01;4.93;;;1.13;;
80293;SDS011;69594;43.516;1.498;2024-02-28T11:08:20;4.55;;;1.40;;
80293;SDS011;69594;43.516;1.498;2024-02-28T11:10:54;3.83;;;1.17;;
80293;SDS011;69594;43.516;1.498;2024-02-28T11:13:21;2.88;;;1.15;;
80293;SDS011;69594;43.516;1.498;2024-02-28T11:15:51;3.65;;;1.45;;
80293;SDS011;69594;43.516;1.498;2024-02-28T11:18:17;4.25;;;1.08;;
80293;SDS011;69594;43.516;1.498;2024-02-28T11:20:43;4.50;;;1.05;;
80293;SDS011;69594;43.516;1.498;2024-02-28T11:23:11;4.43;;;1.02;;
80293;SDS011;69594;43.516;1.498;2024-02-28T11:25:37;3.20;;;1.17;;
80293;SDS011;69594;43.516;1.498;2024-02-28T11:28:02;2.25;;;1.00;;
80293;SDS011;69594;43.516;1.498;2024-02-28T11:30:31;2.83;;;0.90;;
80293;SDS011;69594;43.516;1.498;2024-02-28T11:32:57;2.15;;;1.10;;
80293;SDS011;69594;43.516;1.498;2024-02-28T11:35:24;3.00;;;1.05;;
80293;SDS011;69594;43.516;1.498;2024-02-28T11:37:50;2.75;;;1.15;;
80293;SDS011;69594;43.516;1.498;2024-02-28T11:40:18;2.22;;;1.02;;
80293;SDS011;69594;43.516;1.498;2024-02-28T11:42:44;2.43;;;0.80;;
80293;SDS011;69594;43.516;1.498;2024-02-28T11:45:10;3.33;;;1.00;;
80293;SDS011;69594;43.516;1.498;2024-02-28T11:47:35;3.20;;;1.42;;
80293;SDS011;69594;43.516;1.498;2024-02-28T11:50:02;4.32;;;0.90;;
80293;SDS011;69594;43.516;1.498;2024-02-28T11:52:30;1.65;;;0.82;;
80293;SDS011;69594;43.516;1.498;2024-02-28T11:54:55;4.93;;;1.60;;
80293;SDS011;69594;43.516;1.498;2024-02-28T11:57:21;1.23;;;0.90;;
80293;SDS011;69594;43.516;1.498;2024-02-28T11:59:47;2.75;;;1.17;;
80293;SDS011;69594;43.516;1.498;2024-02-28T12:02:14;2.42;;;1.10;;
80293;SDS011;69594;43.516;1.498;2024-02-28T12:04:40;2.60;;;1.17;;
80293;SDS011;69594;43.516;1.498;2024-02-28T12:07:07;4.43;;;1.00;;
80293;SDS011;69594;43.516;1.498;2024-02-28T12:09:33;4.60;;;1.02;;
80293;SDS011;69594;43.516;1.498;2024-02-28T12:12:02;4.33;;;1.00;;
80293;SDS011;69594;43.516;1.498;2024-02-28T12:14:32;2.15;;;0.95;;
80293;SDS011;69594;43.516;1.498;2024-02-28T12:17:01;1.27;;;0.80;;
80293;SDS011;69594;43.516;1.498;2024-02-28T12:19:28;1.98;;;0.88;;
80293;SDS011;69594;43.516;1.498;2024-02-28T12:21:53;5.50;;;1.47;;
80293;SDS011;69594;43.516;1.498;2024-02-28T12:24:19;1.63;;;0.77;;
80293;SDS011;69594;43.516;1.498;2024-02-28T12:26:44;2.70;;;0.70;;
80293;SDS011;69594;43.516;1.498;2024-02-28T12:29:10;3.03;;;1.10;;
80293;SDS011;69594;43.516;1.498;2024-02-28T12:31:36;1.40;;;0.88;;
80293;SDS011;69594;43.516;1.498;2024-02-28T12:34:02;3.60;;;1.07;;
80293;SDS011;69594;43.516;1.498;2024-02-28T12:36:29;3.47;;;0.90;;
80293;SDS011;69594;43.516;1.498;2024-02-28T12:38:56;5.90;;;2.70;;
80293;SDS011;69594;43.516;1.498;2024-02-28T12:41:23;3.80;;;1.05;;
80293;SDS011;69594;43.516;1.498;2024-02-28T12:43:49;3.83;;;1.10;;
80293;SDS011;69594;43.516;1.498;2024-02-28T12:46:15;2.45;;;0.80;;
80293;SDS011;69594;43.516;1.498;2024-02-28T12:48:40;3.63;;;1.20;;
80293;SDS011;69594;43.516;1.498;2024-02-28T12:51:06;1.20;;;0.73;;
80293;SDS011;69594;43.516;1.498;2024-02-28T12:53:33;5.28;;;0.95;;
80293;SDS011;69594;43.516;1.498;2024-02-28T12:55:59;3.30;;;0.83;;
80293;SDS011;69594;43.516;1.498;2024-02-28T12:58:24;2.05;;;0.82;;
80293;SDS011;69594;43.516;1.498;2024-02-28T13:00:50;3.30;;;1.10;;
80293;SDS011;69594;43.516;1.498;2024-02-28T13:03:15;2.80;;;0.80;;
80293;SDS011;69594;43.516;1.498;2024-02-28T13:05:42;2.53;;;0.70;;
80293;SDS011;69594;43.516;1.498;2024-02-28T13:08:08;2.23;;;0.70;;
80293;SDS011;69594;43.516;1.498;2024-02-28T13:10:34;2.83;;;0.90;;
80293;SDS011;69594;43.516;1.498;2024-02-28T13:13:01;4.90;;;1.10;;
80293;SDS011;69594;43.516;1.498;2024-02-28T13:15:27;2.65;;;0.80;;
80293;SDS011;69594;43.516;1.498;2024-02-28T13:17:52;1.13;;;0.90;;
80293;SDS011;69594;43.516;1.498;2024-02-28T13:20:18;4.77;;;1.10;;
80293;SDS011;69594;43.516;1.498;2024-02-28T13:22:44;2.58;;;0.95;;
80293;SDS011;69594;43.516;1.498;2024-02-28T13:25:10;5.93;;;0.90;;
80293;SDS011;69594;43.516;1.498;2024-02-28T13:27:37;3.13;;;1.83;;
80293;SDS011;69594;43.516;1.498;2024-02-28T13:30:03;2.93;;;1.37;;
80293;SDS011;69594;43.516;1.498;2024-02-28T13:32:29;2.80;;;1.00;;
80293;SDS011;69594;43.516;1.498;2024-02-28T13:34:54;2.70;;;1.10;;
80293;SDS011;69594;43.516;1.498;2024-02-28T13:37:20;3.00;;;0.88;;
80293;SDS011;69594;43.516;1.498;2024-02-28T13:39:45;1.70;;;0.80;;
80293;SDS011;69594;43.516;1.498;2024-02-28T13:42:12;1.03;;;0.97;;
80293;SDS011;69594;43.516;1.498;2024-02-28T13:44:37;3.75;;;0.80;;
80293;SDS011;69594;43.516;1.498;2024-02-28T13:47:03;1.27;;;0.75;;
80293;SDS011;69594;43.516;1.498;2024-02-28T13:49:29;1.87;;;0.70;;
80293;SDS011;69594;43.516;1.498;2024-02-28T13:51:54;1.00;;;0.70;;
80293;SDS011;69594;43.516;1.498;2024-02-28T13:54:20;1.10;;;0.70;;
80293;SDS011;69594;43.516;1.498;2024-02-28T13:56:45;2.63;;;0.90;;
80293;SDS011;69594;43.516;1.498;2024-02-28T13:59:11;1.98;;;0.80;;
80293;SDS011;69594;43.516;1.498;2024-02-28T14:01:37;1.63;;;0.80;;
80293;SDS011;69594;43.516;1.498;2024-02-28T14:04:04;0.65;;;0.60;;
80293;SDS011;69594;43.516;1.498;2024-02-28T14:06:29;1.60;;;0.70;;
80293;SDS011;69594;43.516;1.498;2024-02-28T14:08:55;3.43;;;0.70;;
80293;SDS011;69594;43.516;1.498;2024-02-28T14:11:22;2.40;;;0.65;;
80293;SDS011;69594;43.516;1.498;2024-02-28T14:13:47;2.42;;;0.75;;
80293;SDS011;69594;43.516;1.498;2024-02-28T14:16:13;1.20;;;0.73;;
80293;SDS011;69594;43.516;1.498;2024-02-28T14:18:39;2.53;;;1.10;;
80293;SDS011;69594;43.516;1.498;2024-02-28T14:21:04;1.33;;;0.60;;
80293;SDS011;69594;43.516;1.498;2024-02-28T14:23:30;2.20;;;0.70;;
80293;SDS011;69594;43.516;1.498;2024-02-28T14:25:56;3.85;;;0.73;;
80293;SDS011;69594;43.516;1.498;2024-02-28T14:28:22;2.25;;;0.82;;
80293;SDS011;69594;43.516;1.498;2024-02-28T14:30:47;3.07;;;0.73;;
80293;SDS011;69594;43.516;1.498;2024-02-28T14:33:14;2.08;;;0.70;;
80293;SDS011;69594;43.516;1.498;2024-02-28T14:35:40;0.88;;;0.77;;
80293;SDS011;69594;43.516;1.498;2024-02-28T14:38:06;1.65;;;0.73;;
80293;SDS011;69594;43.516;1.498;2024-02-28T14:40:32;1.90;;;1.00;;
80293;SDS011;69594;43.516;1.498;2024-02-28T14:42:57;1.37;;;0.60;;
80293;SDS011;69594;43.516;1.498;2024-02-28T14:45:22;5.30;;;0.60;;
80293;SDS011;69594;43.516;1.498;2024-02-28T14:47:51;1.07;;;0.67;;